Time;durP1;ratioP1;P1;durP2;ratioP2;P2;SDS_P1;SDS_P2;PMS_P1;PMS_P2;Temp;Humidity;BMP_temperature;BMP_pressure;BME280_temperature;BME280_humidity;BME280_pressure;Samples;Min_cycle;Max_cycle;Signal;HPM_P1;HPM_P2
2022/03/13 06:19:00;;;;;;;;;;;;;;;9.16;37.26;96645.00;4221619;27;10210;-63
2022/03/13 06:21:03;;;;;;;;;;;;;;;9.24;36.89;96639.63;4210699;28;5662;-63
2022/03/13 06:23:05;;;;;;;;;;;;;;;9.18;36.91;96639.56;4206256;28;5649;-64
2022/03/13 06:25:08;;;;;;;;;;;;;;;9.16;37.64;96634.44;4205903;28;5802;-63
2022/03/13 06:27:10;;;;;;;;;;;;;;;9.24;38.15;96642.25;4211796;28;6340;-63
2022/03/13 06:29:15;;;;;;;;;;;;;;;9.16;38.28;96631.00;4208566;28;5649;-63
2022/03/13 06:31:16;;;;;;;;;;;;;;;9.19;39.42;96642.00;4209543;28;6368;-64
2022/03/13 06:33:18;;;;;;;;;;;;;;;9.20;39.79;96641.00;4207510;28;5792;-63
2022/03/13 06:35:22;;;;;;;;;;;;;;;9.17;40.25;96641.34;4199667;28;6416;-64
2022/03/13 06:37:23;;;;;;;;;;;;;;;9.22;40.81;96648.72;4202699;28;5650;-63
2022/03/13 06:39:25;;;;;;;;;;;;;;;8.99;42.62;96647.06;4198520;28;5652;-63
2022/03/13 06:41:28;;;;;;;;;;;;;;;9.13;42.85;96661.22;4179841;28;6040;-63
2022/03/13 06:43:30;;;;;;;;;;;;;;;9.19;42.41;96663.13;4202884;28;7828;-63
2022/03/13 06:45:32;;;;;;;;;;;;;;;9.00;42.76;96666.34;4198052;28;5831;-63
2022/03/13 06:47:34;;;;;;;;;;;;;;;9.03;42.76;96668.59;4204755;28;5760;-63
2022/03/13 06:49:36;;;;;;;;;;;;;;;9.09;42.47;96675.78;4197401;28;5835;-63
2022/03/13 06:51:38;;;;;;;;;;;;;;;9.18;42.33;96679.13;4205037;28;5706;-64
2022/03/13 06:53:40;;;;;;;;;;;;;;;9.19;42.89;96672.84;4209160;28;5636;-64
2022/03/13 06:55:41;;;;;;;;;;;;;;;9.22;43.25;96670.66;4206508;28;5952;-64
2022/03/13 06:57:43;;;;;;;;;;;;;;;9.25;43.29;96678.16;4206224;28;5803;-64
2022/03/13 06:59:46;;;;;;;;;;;;;;;9.28;42.99;96674.34;4212177;28;5205;-64
2022/03/13 07:01:49;;;;;;;;;;;;;;;9.39;42.95;96679.13;4198709;28;7456;-64
2022/03/13 07:03:50;;;;;;;;;;;;;;;9.26;43.75;96663.97;4197315;28;5833;-63
2022/03/13 07:05:52;;;;;;;;;;;;;;;9.17;45.71;96672.19;4194905;28;5809;-64
2022/03/13 07:07:54;;;;;;;;;;;;;;;9.37;45.74;96672.41;4213201;28;6398;-64
2022/03/13 07:09:57;;;;;;;;;;;;;;;9.24;46.66;96681.00;4230152;28;5785;-64
2022/03/13 07:11:59;;;;;;;;;;;;;;;9.34;46.69;96677.06;4226097;28;5634;-64
2022/03/13 07:14:04;;;;;;;;;;;;;;;9.23;47.89;96682.81;4198707;28;5090;-64
2022/03/13 07:16:08;;;;;;;;;;;;;;;9.24;47.47;96673.91;4196299;28;5720;-64
2022/03/13 07:18:10;;;;;;;;;;;;;;;9.22;46.33;96668.00;4199782;28;5681;-64
2022/03/13 07:20:13;;;;;;;;;;;;;;;9.31;44.30;96666.88;4192270;28;5647;-64
2022/03/13 07:22:16;;;;;;;;;;;;;;;9.25;42.07;96659.72;4202009;28;6321;-64
2022/03/13 07:24:17;;;;;;;;;;;;;;;9.33;41.24;96658.78;4200526;28;6486;-64
2022/03/13 07:26:19;;;;;;;;;;;;;;;9.24;40.60;96652.81;4186024;28;5649;-63
2022/03/13 07:28:21;;;;;;;;;;;;;;;9.30;41.17;96656.53;4185220;28;5832;-63
2022/03/13 07:30:24;;;;;;;;;;;;;;;9.28;41.92;96656.69;4199146;28;5627;-63
2022/03/13 07:32:26;;;;;;;;;;;;;;;9.36;42.33;96662.84;4188355;28;5661;-63
2022/03/13 07:34:28;;;;;;;;;;;;;;;9.46;42.48;96653.63;4185250;28;5744;-63
2022/03/13 07:36:31;;;;;;;;;;;;;;;9.31;42.68;96655.53;4189799;28;5642;-63
2022/03/13 07:38:33;;;;;;;;;;;;;;;9.52;42.59;96658.16;4201374;28;5077;-64
2022/03/13 07:40:34;;;;;;;;;;;;;;;9.65;43.47;96661.91;4201534;28;7810;-63
2022/03/13 07:42:37;;;;;;;;;;;;;;;9.67;44.16;96665.16;4195512;28;5650;-63
2022/03/13 07:44:38;;;;;;;;;;;;;;;9.66;45.28;96664.34;4190239;28;5730;-64
2022/03/13 07:46:41;;;;;;;;;;;;;;;9.52;46.88;96671.34;4194359;28;5737;-63
2022/03/13 07:48:44;;;;;;;;;;;;;;;9.55;47.71;96668.31;4192183;28;5627;-62
2022/03/13 07:50:46;;;;;;;;;;;;;;;9.46;48.88;96673.91;4189292;28;5716;-62
2022/03/13 07:52:48;;;;;;;;;;;;;;;9.61;48.60;96674.66;4191869;28;5872;-64
2022/03/13 07:54:49;;;;;;;;;;;;;;;9.52;49.72;96671.34;4201004;28;5635;-62
2022/03/13 07:56:51;;;;;;;;;;;;;;;9.53;50.19;96672.16;4191910;28;6315;-65
2022/03/13 07:58:53;;;;;;;;;;;;;;;9.42;51.89;96680.59;4184865;28;5745;-64
2022/03/13 08:00:54;;;;;;;;;;;;;;;9.66;52.91;96682.03;4184636;28;5647;-63
2022/03/13 08:02:56;;;;;;;;;;;;;;;9.57;54.52;96686.59;4184532;28;5778;-63
2022/03/13 08:04:58;;;;;;;;;;;;;;;9.61;54.50;96693.13;4184560;28;5740;-62
2022/03/13 08:07:00;;;;;;;;;;;;;;;9.24;58.07;96684.47;4184260;28;5670;-63
2022/03/13 08:09:03;;;;;;;;;;;;;;;9.39;55.93;96691.50;4183962;28;5744;-63
2022/03/13 08:11:05;;;;;;;;;;;;;;;9.66;55.05;96687.28;4186297;28;5870;-63
2022/03/13 08:13:07;;;;;;;;;;;;;;;9.71;53.65;96683.06;4194302;28;5700;-63
2022/03/13 08:15:09;;;;;;;;;;;;;;;9.78;54.47;96683.13;4190188;28;5722;-63
2022/03/13 08:17:10;;;;;;;;;;;;;;;9.65;55.07;96683.84;4200469;28;5620;-63
2022/03/13 08:19:12;;;;;;;;;;;;;;;9.59;54.98;96684.59;4190362;28;5689;-63
2022/03/13 08:21:16;;;;;;;;;;;;;;;9.60;55.02;96683.56;4194938;28;5626;-64
2022/03/13 08:23:17;;;;;;;;;;;;;;;9.57;54.75;96676.03;4195006;28;5718;-64
2022/03/13 08:25:20;;;;;;;;;;;;;;;9.30;56.66;96686.34;4191622;28;5134;-64
2022/03/13 08:27:22;;;;;;;;;;;;;;;9.30;55.71;96691.63;4183528;28;5649;-63
2022/03/13 08:29:24;;;;;;;;;;;;;;;9.49;55.67;96694.63;4184029;28;5661;-64
2022/03/13 08:31:26;;;;;;;;;;;;;;;9.52;55.46;96694.28;4187822;28;5809;-63
2022/03/13 08:33:27;;;;;;;;;;;;;;;9.56;55.39;96693.72;4201006;28;5727;-63
2022/03/13 08:35:30;;;;;;;;;;;;;;;9.56;55.21;96690.25;4186362;28;5653;-63
2022/03/13 08:37:31;;;;;;;;;;;;;;;9.59;54.89;96693.31;4190955;28;5657;-63
2022/03/13 08:39:34;;;;;;;;;;;;;;;9.72;54.78;96689.97;4184093;28;6331;-63
2022/03/13 08:41:37;;;;;;;;;;;;;;;9.86;53.93;96690.94;4198351;28;5615;-63
2022/03/13 08:43:39;;;;;;;;;;;;;;;9.84;53.44;96687.63;4201243;28;5666;-63
2022/03/13 08:45:40;;;;;;;;;;;;;;;9.96;53.38;96680.81;4191394;28;5649;-63
2022/03/13 08:47:42;;;;;;;;;;;;;;;10.06;53.17;96693.69;4183858;28;5642;-63
2022/03/13 08:49:44;;;;;;;;;;;;;;;9.74;53.70;96688.00;4190873;28;5655;-63
2022/03/13 08:51:45;;;;;;;;;;;;;;;10.05;51.59;96684.16;4199437;28;5085;-63
2022/03/13 08:53:47;;;;;;;;;;;;;;;10.22;50.72;96690.00;4198442;28;7693;-62
2022/03/13 08:55:49;;;;;;;;;;;;;;;10.37;49.80;96678.28;4185077;28;5670;-63
2022/03/13 08:57:50;;;;;;;;;;;;;;;10.36;48.92;96683.78;4187376;28;5784;-63
2022/03/13 08:59:54;;;;;;;;;;;;;;;10.40;48.79;96688.47;4189486;28;5657;-63
2022/03/13 09:01:55;;;;;;;;;;;;;;;10.48;48.76;96683.03;4200002;28;5650;-63
2022/03/13 09:03:57;;;;;;;;;;;;;;;10.57;48.45;96682.88;4184914;28;5766;-63
2022/03/13 09:05:59;;;;;;;;;;;;;;;10.34;48.64;96689.25;4198768;28;5880;-64
2022/03/13 09:08:01;;;;;;;;;;;;;;;10.59;48.63;96686.16;4197230;28;7165;-64
2022/03/13 09:10:07;;;;;;;;;;;;;;;10.54;48.19;96689.38;4183322;28;5720;-65
2022/03/13 09:12:10;;;;;;;;;;;;;;;10.56;47.74;96683.91;4203742;28;6394;-58
2022/03/13 09:14:12;;;;;;;;;;;;;;;10.52;47.96;96685.28;4187605;28;5807;-58
2022/03/13 09:16:13;;;;;;;;;;;;;;;10.65;48.34;96680.91;4194137;28;5164;-58
2022/03/13 09:18:16;;;;;;;;;;;;;;;10.78;47.76;96686.25;4197478;28;5753;-59
2022/03/13 09:20:17;;;;;;;;;;;;;;;10.72;47.17;96688.84;4187899;28;5791;-58
2022/03/13 09:22:20;;;;;;;;;;;;;;;10.57;47.73;96689.00;4193446;28;5725;-58
2022/03/13 09:24:22;;;;;;;;;;;;;;;10.54;49.02;96692.03;4180195;28;6509;-67
2022/03/13 09:26:23;;;;;;;;;;;;;;;10.42;48.04;96694.41;4195323;28;5752;-68
2022/03/13 09:28:26;;;;;;;;;;;;;;;10.52;47.92;96701.97;4181417;28;5826;-67
2022/03/13 09:30:28;;;;;;;;;;;;;;;10.64;48.42;96699.56;4190816;28;5852;-67
2022/03/13 09:32:30;;;;;;;;;;;;;;;10.70;47.93;96704.09;4194426;28;6447;-67
2022/03/13 09:34:32;;;;;;;;;;;;;;;10.69;47.16;96691.91;4187436;28;5762;-68
2022/03/13 09:36:36;;;;;;;;;;;;;;;10.72;47.34;96702.06;4195614;28;5860;-67
2022/03/13 09:38:37;;;;;;;;;;;;;;;10.77;47.52;96689.91;4196729;28;5745;-67
2022/03/13 09:40:40;;;;;;;;;;;;;;;10.73;48.00;96695.78;4183648;28;5853;-67
2022/03/13 09:42:43;;;;;;;;;;;;;;;10.78;47.61;96693.38;4192495;28;5745;-67
2022/03/13 09:44:45;;;;;;;;;;;;;;;10.75;45.91;96691.91;4186401;28;5710;-67
2022/03/13 09:46:48;;;;;;;;;;;;;;;10.85;45.59;96688.91;4192285;28;5733;-68
2022/03/13 09:48:52;;;;;;;;;;;;;;;10.87;45.71;96697.44;4180843;28;5744;-71
2022/03/13 09:50:54;;;;;;;;;;;;;;;10.76;45.67;96696.22;4168839;28;5920;-65
2022/03/13 09:52:56;;;;;;;;;;;;;;;10.81;46.80;96695.59;4204902;28;5805;-63
2022/03/13 09:54:58;;;;;;;;;;;;;;;10.89;46.36;96695.44;4184666;28;5803;-63
2022/03/13 09:57:04;;;;;;;;;;;;;;;11.02;45.49;96692.03;4180268;28;5816;-65
2022/03/13 09:59:07;;;;;;;;;;;;;;;10.99;44.68;96689.78;4184483;28;5828;-65
2022/03/13 10:01:09;;;;;;;;;;;;;;;10.82;46.36;96707.00;4186694;28;5777;-65
2022/03/13 10:03:13;;;;;;;;;;;;;;;10.87;46.61;96696.63;4190510;28;5756;-65
2022/03/13 10:05:17;;;;;;;;;;;;;;;10.73;45.08;96693.13;4184141;28;5710;-65
2022/03/13 10:07:18;;;;;;;;;;;;;;;10.69;45.99;96687.41;4182234;28;6499;-64
2022/03/13 10:09:27;;;;;;;;;;;;;;;10.92;45.07;96689.75;4181098;28;5741;-65
2022/03/13 10:11:34;;;;;;;;;;;;;;;10.83;44.76;96693.56;4182171;28;5795;-65
2022/03/13 10:13:45;;;;;;;;;;;;;;;10.97;44.54;96695.25;4179850;28;5102;-64
2022/03/13 10:15:49;;;;;;;;;;;;;;;10.91;43.77;96695.25;4182787;28;7740;-64
2022/03/13 10:17:51;;;;;;;;;;;;;;;11.03;44.08;96691.84;4192483;28;6434;-64
2022/03/13 10:19:52;;;;;;;;;;;;;;;10.77;43.24;96694.38;4190363;28;5893;-64
2022/03/13 10:22:03;;;;;;;;;;;;;;;11.01;43.30;96690.41;4191135;28;5843;-65
2022/03/13 10:24:10;;;;;;;;;;;;;;;10.98;42.93;96685.50;4183341;28;5722;-64
2022/03/13 10:26:11;;;;;;;;;;;;;;;10.78;43.23;96685.44;4192915;28;5717;-64
2022/03/13 10:28:23;;;;;;;;;;;;;;;10.81;42.25;96686.88;4186292;28;5709;-65
2022/03/13 10:30:25;;;;;;;;;;;;;;;10.88;42.11;96691.19;4179924;28;5741;-64
2022/03/13 10:32:27;;;;;;;;;;;;;;;11.00;42.15;96699.34;4189663;28;5748;-64
2022/03/13 10:34:29;;;;;;;;;;;;;;;11.23;42.15;96693.72;4186471;28;5833;-65
2022/03/13 10:36:32;;;;;;;;;;;;;;;11.19;41.48;96682.72;4184886;28;5859;-66
2022/03/13 10:38:35;;;;;;;;;;;;;;;11.12;41.61;96681.09;4179414;28;5808;-67
2022/03/13 10:40:37;;;;;;;;;;;;;;;11.15;40.77;96688.63;4179564;28;5748;-67
2022/03/13 10:42:48;;;;;;;;;;;;;;;11.09;41.90;96680.44;4192182;28;5773;-66
2022/03/13 10:44:52;;;;;;;;;;;;;;;11.01;41.55;96691.22;4180417;28;5818;-67
2022/03/13 10:46:59;;;;;;;;;;;;;;;11.15;41.63;96681.50;4180078;28;5749;-67
2022/03/13 10:49:03;;;;;;;;;;;;;;;11.19;41.39;96671.31;4180309;28;5740;-68
2022/03/13 10:51:12;;;;;;;;;;;;;;;11.34;41.92;96669.34;4179981;28;5747;-67
2022/03/13 10:53:14;;;;;;;;;;;;;;;11.43;41.37;96668.09;4190438;28;5726;-64
2022/03/13 10:55:24;;;;;;;;;;;;;;;11.33;41.70;96673.81;4182760;28;6368;-64
2022/03/13 10:57:26;;;;;;;;;;;;;;;11.47;41.61;96669.34;4194995;28;5917;-64
2022/03/13 10:59:29;;;;;;;;;;;;;;;11.43;41.11;96668.09;4193797;28;5840;-64
2022/03/13 11:01:32;;;;;;;;;;;;;;;11.50;41.01;96668.94;4199481;28;5729;-64
2022/03/13 11:03:36;;;;;;;;;;;;;;;11.60;40.88;96679.97;4199544;28;5730;-64
2022/03/13 11:05:39;;;;;;;;;;;;;;;11.58;40.29;96674.06;4199954;28;5738;-64
2022/03/13 11:07:41;;;;;;;;;;;;;;;11.72;41.30;96666.13;4199150;28;5721;-64
2022/03/13 11:09:43;;;;;;;;;;;;;;;11.80;41.01;96660.66;4198786;28;5730;-64
2022/03/13 11:11:45;;;;;;;;;;;;;;;11.77;40.55;96666.31;4181383;28;5838;-64
2022/03/13 11:13:55;;;;;;;;;;;;;;;11.76;41.01;96670.78;4199412;28;5725;-64
2022/03/13 11:15:57;;;;;;;;;;;;;;;11.71;41.44;96664.47;4199352;28;5726;-64
2022/03/13 11:18:06;;;;;;;;;;;;;;;11.71;41.09;96667.13;4189169;28;6466;-64
2022/03/13 11:20:09;;;;;;;;;;;;;;;11.56;40.92;96676.09;4195041;28;6520;-64
2022/03/13 11:22:12;;;;;;;;;;;;;;;11.57;41.18;96674.25;4199315;28;5824;-64
2022/03/13 11:24:14;;;;;;;;;;;;;;;11.58;41.54;96671.41;4199019;28;5784;-64
2022/03/13 11:26:18;;;;;;;;;;;;;;;11.81;41.43;96663.09;4199372;28;5873;-64
2022/03/13 11:28:20;;;;;;;;;;;;;;;11.78;41.18;96660.84;4198923;28;8554;-65
2022/03/13 11:30:34;;;;;;;;;;;;;;;11.84;40.72;96648.63;4199052;28;5629;-64
2022/03/13 11:32:52;;;;;;;;;;;;;;;11.94;40.96;96641.09;4199292;28;8319;-64
2022/03/13 11:35:15;;;;;;;;;;;;;;;11.99;40.97;96641.25;4198822;28;7783;-64
2022/03/13 11:37:31;;;;;;;;;;;;;;;11.94;41.78;96630.47;4198448;28;6550;-65
2022/03/13 11:39:34;;;;;;;;;;;;;;;11.76;41.40;96627.59;4198516;28;5771;-65
2022/03/13 11:41:46;;;;;;;;;;;;;;;11.83;41.15;96621.31;4198786;28;5845;-65
2022/03/13 11:43:48;;;;;;;;;;;;;;;11.89;40.66;96612.56;4199181;28;5838;-65
2022/03/13 11:45:55;;;;;;;;;;;;;;;11.97;41.10;96606.22;4199046;28;5849;-65
2022/03/13 11:48:14;;;;;;;;;;;;;;;12.08;40.98;96604.78;4198894;28;6526;-65
2022/03/13 11:50:16;;;;;;;;;;;;;;;12.18;41.16;96600.69;4198693;28;5837;-65
2022/03/13 11:52:26;;;;;;;;;;;;;;;12.33;41.28;96594.31;4198904;28;5926;-65
2022/03/13 11:54:47;;;;;;;;;;;;;;;12.44;40.23;96601.63;4198715;28;5837;-65
2022/03/13 11:56:49;;;;;;;;;;;;;;;12.52;40.47;96591.59;4198778;28;6503;-65
2022/03/13 11:58:54;;;;;;;;;;;;;;;12.48;39.84;96581.63;4198722;28;6818;-65
2022/03/13 12:01:06;;;;;;;;;;;;;;;12.73;40.50;96587.84;4198347;28;5857;-65
2022/03/13 12:03:11;;;;;;;;;;;;;;;12.88;39.71;96579.59;4198760;28;6603;-65
2022/03/13 12:05:25;;;;;;;;;;;;;;;13.03;39.06;96579.31;4198370;28;5733;-65
2022/03/13 12:07:28;;;;;;;;;;;;;;;13.19;39.18;96578.84;4198103;28;5770;-63
2022/03/13 12:09:32;;;;;;;;;;;;;;;13.32;38.68;96577.94;4198328;28;6077;-65
2022/03/13 12:11:43;;;;;;;;;;;;;;;13.28;39.15;96582.88;4198214;28;5735;-65
2022/03/13 12:13:48;;;;;;;;;;;;;;;13.19;39.22;96573.53;4198666;28;6415;-65
2022/03/13 12:15:50;;;;;;;;;;;;;;;13.08;40.03;96566.22;4198747;28;5898;-63
2022/03/13 12:17:53;;;;;;;;;;;;;;;13.04;40.58;96568.50;4198079;28;5742;-65
2022/03/13 12:19:58;;;;;;;;;;;;;;;13.06;40.41;96563.78;4198092;28;6493;-65
2022/03/13 12:22:00;;;;;;;;;;;;;;;13.04;40.83;96559.72;4198506;28;5832;-65
2022/03/13 12:24:32;;;;;;;;;;;;;;;13.07;41.18;96553.97;4198297;28;6367;-66
2022/03/13 12:26:39;;;;;;;;;;;;;;;13.14;41.12;96560.06;4198474;28;5850;-65
2022/03/13 12:28:41;;;;;;;;;;;;;;;12.96;40.59;96552.00;4198142;28;5799;-65
2022/03/13 12:30:43;;;;;;;;;;;;;;;12.69;40.55;96552.16;4198148;28;5792;-66
2022/03/13 12:32:45;;;;;;;;;;;;;;;12.63;41.63;96560.97;4198057;28;5811;-65
2022/03/13 12:35:07;;;;;;;;;;;;;;;12.68;42.01;96550.50;4198139;28;5803;-65
2022/03/13 12:37:09;;;;;;;;;;;;;;;12.50;41.52;96551.22;4197990;28;5773;-65
2022/03/13 12:39:16;;;;;;;;;;;;;;;12.40;42.59;96556.16;4197852;28;5840;-65
2022/03/13 12:41:19;;;;;;;;;;;;;;;12.37;42.19;96555.78;4197906;28;5935;-65
2022/03/13 12:43:21;;;;;;;;;;;;;;;12.36;42.50;96551.50;4198257;28;5791;-65
2022/03/13 12:45:23;;;;;;;;;;;;;;;12.35;42.75;96560.47;4196540;28;5741;-65
2022/03/13 12:47:29;;;;;;;;;;;;;;;12.37;42.45;96569.03;4197912;28;5804;-65
2022/03/13 12:49:32;;;;;;;;;;;;;;;12.28;42.21;96571.09;4197950;28;5863;-66
2022/03/13 12:51:44;;;;;;;;;;;;;;;12.27;43.05;96560.72;4197919;28;5811;-65
2022/03/13 12:53:54;;;;;;;;;;;;;;;12.14;42.72;96567.69;4197706;28;6011;-65
2022/03/13 12:55:56;;;;;;;;;;;;;;;12.13;41.57;96562.59;4197771;28;7248;-65
2022/03/13 12:57:59;;;;;;;;;;;;;;;12.03;41.39;96564.84;4197641;28;6072;-65
2022/03/13 13:00:04;;;;;;;;;;;;;;;11.90;41.88;96557.75;4197445;28;7681;-65
2022/03/13 13:02:14;;;;;;;;;;;;;;;11.86;42.00;96559.16;4197455;28;5849;-65
2022/03/13 13:04:19;;;;;;;;;;;;;;;11.95;42.90;96555.28;4197848;28;5829;-65
2022/03/13 13:06:34;;;;;;;;;;;;;;;11.98;42.53;96554.06;4197597;28;5844;-65
2022/03/13 13:08:37;;;;;;;;;;;;;;;12.11;42.96;96551.38;4196409;28;5707;-65
2022/03/13 13:10:38;;;;;;;;;;;;;;;12.19;42.41;96546.66;4197359;28;6443;-65
2022/03/13 13:12:41;;;;;;;;;;;;;;;12.23;42.53;96533.78;4197590;28;5746;-65
2022/03/13 13:14:43;;;;;;;;;;;;;;;12.18;43.04;96534.44;4197565;28;5739;-65
2022/03/13 13:16:45;;;;;;;;;;;;;;;12.15;43.42;96536.69;4197065;28;5800;-65
2022/03/13 13:18:47;;;;;;;;;;;;;;;12.26;43.24;96535.22;4197189;28;5722;-65
2022/03/13 13:20:50;;;;;;;;;;;;;;;12.30;43.17;96536.44;4197438;28;5757;-65
2022/03/13 13:23:12;;;;;;;;;;;;;;;12.34;42.74;96527.03;4197691;28;5733;-65
2022/03/13 13:25:17;;;;;;;;;;;;;;;12.17;43.50;96521.38;4197304;28;5864;-65
2022/03/13 13:27:33;;;;;;;;;;;;;;;12.29;43.58;96518.91;4197513;28;5725;-65
2022/03/13 13:29:40;;;;;;;;;;;;;;;12.33;43.68;96512.97;4197324;28;5780;-65
2022/03/13 13:31:41;;;;;;;;;;;;;;;11.98;43.80;96507.19;4197659;28;5726;-65
2022/03/13 13:33:43;;;;;;;;;;;;;;;12.14;44.20;96506.72;4197271;28;5734;-65
2022/03/13 13:35:53;;;;;;;;;;;;;;;12.15;44.24;96502.25;4197452;28;5729;-65
2022/03/13 13:37:57;;;;;;;;;;;;;;;12.16;44.08;96515.28;4197355;28;5771;-65
2022/03/13 13:40:04;;;;;;;;;;;;;;;12.07;45.34;96513.88;4196793;28;5745;-65
2022/03/13 13:42:06;;;;;;;;;;;;;;;12.34;44.44;96505.81;4197404;28;5753;-66
2022/03/13 13:44:08;;;;;;;;;;;;;;;12.45;43.76;96510.44;4197209;28;5747;-65
2022/03/13 13:46:13;;;;;;;;;;;;;;;12.47;43.09;96511.09;4197107;28;5817;-66
2022/03/13 13:48:47;;;;;;;;;;;;;;;12.42;41.58;96509.03;4196981;28;5746;-65
2022/03/13 13:51:10;;;;;;;;;;;;;;;12.47;40.97;96511.88;4188632;28;5737;-65
2022/03/13 13:53:12;;;;;;;;;;;;;;;12.41;39.87;96517.22;4197162;28;5726;-65
2022/03/13 13:55:22;;;;;;;;;;;;;;;12.36;39.69;96512.56;4196568;28;6494;-66
2022/03/13 13:57:25;;;;;;;;;;;;;;;12.42;42.10;96516.19;4197016;28;5761;-65
2022/03/13 13:59:38;;;;;;;;;;;;;;;12.43;42.13;96517.81;4196793;28;5888;-65
2022/03/13 14:01:41;;;;;;;;;;;;;;;12.32;42.53;96518.47;4197453;28;5779;-66
2022/03/13 14:03:43;;;;;;;;;;;;;;;12.23;43.06;96521.38;4196935;28;5719;-65
2022/03/13 14:05:45;;;;;;;;;;;;;;;12.05;43.02;96507.16;4197021;28;5718;-65
2022/03/13 14:07:59;;;;;;;;;;;;;;;12.02;44.26;96513.72;4196859;28;5853;-65
2022/03/13 14:10:02;;;;;;;;;;;;;;;12.05;44.64;96517.75;4196501;28;5861;-65
2022/03/13 14:12:05;;;;;;;;;;;;;;;12.00;44.67;96518.38;4196715;28;5927;-65
2022/03/13 14:14:07;;;;;;;;;;;;;;;12.02;44.56;96515.53;4196944;28;5864;-65
2022/03/13 14:16:09;;;;;;;;;;;;;;;12.01;43.56;96509.44;4196755;28;5840;-65
2022/03/13 14:18:11;;;;;;;;;;;;;;;11.96;43.56;96509.22;4196189;28;5873;-65
2022/03/13 14:20:12;;;;;;;;;;;;;;;11.95;44.26;96504.94;4196488;28;5865;-65
2022/03/13 14:22:15;;;;;;;;;;;;;;;11.89;44.24;96500.47;4197082;28;5920;-66
2022/03/13 14:24:17;;;;;;;;;;;;;;;11.70;44.41;96499.50;4196703;28;6604;-65
2022/03/13 14:26:19;;;;;;;;;;;;;;;11.59;44.38;96514.19;4196919;28;6474;-66
2022/03/13 14:28:23;;;;;;;;;;;;;;;11.53;44.40;96503.59;4196732;28;6547;-66
2022/03/13 14:30:25;;;;;;;;;;;;;;;11.41;45.63;96498.09;4199817;28;5776;-65
2022/03/13 14:32:26;;;;;;;;;;;;;;;11.37;45.78;96494.25;4200106;28;5772;-65
2022/03/13 14:34:28;;;;;;;;;;;;;;;11.40;45.31;96491.19;4199862;28;6239;-65
2022/03/13 14:36:30;;;;;;;;;;;;;;;11.42;44.98;96489.13;4199995;28;5807;-65
2022/03/13 14:38:32;;;;;;;;;;;;;;;11.44;44.93;96480.97;4199668;28;5807;-65
2022/03/13 14:40:34;;;;;;;;;;;;;;;11.50;44.96;96491.56;4198060;28;5913;-65
2022/03/13 14:42:36;;;;;;;;;;;;;;;11.57;44.86;96473.03;4200175;28;5787;-65
2022/03/13 14:44:38;;;;;;;;;;;;;;;11.66;45.17;96477.06;4199810;28;6412;-65
2022/03/13 14:46:39;;;;;;;;;;;;;;;11.68;45.22;96476.91;4200142;28;5780;-65
2022/03/13 14:48:43;;;;;;;;;;;;;;;11.72;45.18;96473.63;4199941;28;5896;-65
2022/03/13 14:50:49;;;;;;;;;;;;;;;11.75;45.21;96472.38;4199676;28;6561;-65
2022/03/13 14:52:53;;;;;;;;;;;;;;;11.80;45.34;96475.25;4199909;28;5800;-65
2022/03/13 14:54:55;;;;;;;;;;;;;;;11.81;45.06;96472.41;4199587;28;5795;-64
2022/03/13 14:56:57;;;;;;;;;;;;;;;11.81;45.01;96476.88;4198059;28;5757;-65
2022/03/13 14:58:59;;;;;;;;;;;;;;;11.80;45.38;96477.91;4199856;28;5908;-64
2022/03/13 15:01:04;;;;;;;;;;;;;;;11.77;45.27;96479.09;4199210;28;5911;-65
2022/03/13 15:03:07;;;;;;;;;;;;;;;11.74;45.64;96474.22;4199496;28;5818;-65
2022/03/13 15:05:09;;;;;;;;;;;;;;;11.74;45.64;96473.41;4199766;28;5916;-65
2022/03/13 15:07:10;;;;;;;;;;;;;;;11.73;45.90;96488.47;4199286;28;5869;-65
2022/03/13 15:09:12;;;;;;;;;;;;;;;11.65;45.83;96491.34;4199044;28;5105;-65
2022/03/13 15:11:14;;;;;;;;;;;;;;;11.54;47.00;96497.25;4199272;28;5722;-65
2022/03/13 15:13:20;;;;;;;;;;;;;;;11.31;48.01;96505.63;4199601;28;5742;-64
2022/03/13 15:15:23;;;;;;;;;;;;;;;11.31;48.63;96505.63;4198718;28;5735;-66
2022/03/13 15:17:24;;;;;;;;;;;;;;;11.32;48.66;96517.84;4199209;28;5738;-64
2022/03/13 15:19:26;;;;;;;;;;;;;;;11.20;49.04;96512.34;4198915;28;5868;-65
2022/03/13 15:21:28;;;;;;;;;;;;;;;11.21;48.57;96521.94;4199257;28;5745;-64
2022/03/13 15:23:29;;;;;;;;;;;;;;;11.20;48.60;96517.66;4199112;28;5800;-65
2022/03/13 15:25:31;;;;;;;;;;;;;;;11.18;48.50;96505.66;4198731;28;5836;-65
2022/03/13 15:27:33;;;;;;;;;;;;;;;11.20;48.30;96519.47;4199283;28;5800;-65
2022/03/13 15:29:36;;;;;;;;;;;;;;;11.18;47.72;96516.22;4199063;28;5800;-65
2022/03/13 15:31:38;;;;;;;;;;;;;;;11.20;47.60;96522.13;4199190;28;5811;-65
2022/03/13 15:33:40;;;;;;;;;;;;;;;11.17;46.92;96527.81;4199352;28;5820;-65
2022/03/13 15:35:42;;;;;;;;;;;;;;;11.13;47.18;96522.13;4199193;28;5874;-65
2022/03/13 15:37:44;;;;;;;;;;;;;;;11.08;46.84;96530.66;4198837;28;5837;-65
2022/03/13 15:39:46;;;;;;;;;;;;;;;11.06;47.50;96532.69;4198122;28;5792;-65
2022/03/13 15:41:47;;;;;;;;;;;;;;;11.13;47.10;96535.38;4199152;28;5801;-65
2022/03/13 15:43:49;;;;;;;;;;;;;;;11.22;46.94;96530.69;4199129;28;5788;-65
2022/03/13 15:45:51;;;;;;;;;;;;;;;11.28;46.93;96532.50;4201174;28;5784;-64
2022/03/13 15:47:58;;;;;;;;;;;;;;;11.19;47.46;96529.25;4202050;28;5700;-64
2022/03/13 15:50:00;;;;;;;;;;;;;;;11.18;48.46;96529.47;4201770;28;5680;-64
2022/03/13 15:52:04;;;;;;;;;;;;;;;11.14;48.14;96528.25;4201805;28;5737;-64
2022/03/13 15:54:07;;;;;;;;;;;;;;;11.23;47.94;96527.03;4201453;28;5871;-64
2022/03/13 15:56:09;;;;;;;;;;;;;;;11.26;47.99;96531.91;4202152;28;5504;-64
2022/03/13 15:58:10;;;;;;;;;;;;;;;11.30;48.14;96549.00;4201822;28;7355;-64
2022/03/13 16:00:13;;;;;;;;;;;;;;;11.21;49.03;96552.84;4201601;28;5697;-64
2022/03/13 16:02:16;;;;;;;;;;;;;;;11.32;48.49;96570.78;4201728;28;5753;-64
2022/03/13 16:04:18;;;;;;;;;;;;;;;11.36;48.84;96574.66;4201509;28;5816;-64
2022/03/13 16:06:20;;;;;;;;;;;;;;;11.32;49.37;96592.75;4201199;28;5750;-64
2022/03/13 16:08:21;;;;;;;;;;;;;;;11.29;49.61;96592.34;4201257;28;5687;-64
2022/03/13 16:10:23;;;;;;;;;;;;;;;11.27;50.62;96607.63;4201246;28;6404;-64
2022/03/13 16:12:28;;;;;;;;;;;;;;;11.29;50.50;96613.53;4183518;28;5776;-64
2022/03/13 16:14:30;;;;;;;;;;;;;;;11.29;50.29;96616.19;4201363;28;5639;-65
2022/03/13 16:16:32;;;;;;;;;;;;;;;11.30;50.14;96608.03;4201235;28;5713;-65
2022/03/13 16:18:34;;;;;;;;;;;;;;;11.30;50.30;96615.97;4200767;28;5643;-65
2022/03/13 16:20:36;;;;;;;;;;;;;;;11.31;50.16;96624.72;4200879;28;5630;-65
2022/03/13 16:22:37;;;;;;;;;;;;;;;11.32;51.13;96626.34;4201340;28;5723;-65
2022/03/13 16:24:39;;;;;;;;;;;;;;;11.32;50.43;96623.72;4193309;28;5670;-65
2022/03/13 16:26:41;;;;;;;;;;;;;;;11.36;50.16;96623.13;4184579;28;5697;-65
2022/03/13 16:28:43;;;;;;;;;;;;;;;11.15;51.52;96622.47;4191044;28;5683;-65
2022/03/13 16:30:45;;;;;;;;;;;;;;;11.10;51.35;96623.09;4192320;28;5757;-65
2022/03/13 16:32:46;;;;;;;;;;;;;;;11.24;50.84;96626.56;4193885;28;5808;-66
2022/03/13 16:34:49;;;;;;;;;;;;;;;11.24;50.84;96626.56;4202173;28;5847;-66
2022/03/13 16:36:50;;;;;;;;;;;;;;;11.23;51.21;96624.94;4175329;28;5785;-66
2022/03/13 16:38:52;;;;;;;;;;;;;;;11.28;51.19;96611.91;4185145;28;5845;-66
2022/03/13 16:40:56;;;;;;;;;;;;;;;11.06;52.44;96613.91;4192959;28;5754;-66
2022/03/13 16:42:58;;;;;;;;;;;;;;;11.06;51.57;96611.25;4186111;28;5728;-66
2022/03/13 16:45:01;;;;;;;;;;;;;;;11.28;51.13;96612.72;4189034;28;5646;-66
2022/03/13 16:47:03;;;;;;;;;;;;;;;11.34;50.60;96613.75;4199134;28;5638;-60
2022/03/13 16:49:05;;;;;;;;;;;;;;;11.38;50.35;96613.13;4204213;28;6369;-66
2022/03/13 16:51:08;;;;;;;;;;;;;;;11.33;50.15;96614.78;4190765;28;5620;-66
2022/03/13 16:53:16;;;;;;;;;;;;;;;11.36;50.48;96624.94;4186092;28;5736;-67
2022/03/13 16:55:19;;;;;;;;;;;;;;;11.38;50.13;96620.25;4183940;28;5741;-65
2022/03/13 16:57:21;;;;;;;;;;;;;;;11.43;49.53;96623.09;4192912;28;5639;-64
2022/03/13 16:59:23;;;;;;;;;;;;;;;11.50;49.23;96618.63;4185620;28;5673;-66
2022/03/13 17:01:25;;;;;;;;;;;;;;;11.50;49.51;96625.78;4186737;28;5773;-66
2022/03/13 17:03:27;;;;;;;;;;;;;;;11.51;49.84;96625.56;4188065;28;5638;-66
2022/03/13 17:05:29;;;;;;;;;;;;;;;11.36;49.05;96636.34;4195615;28;5702;-66
2022/03/13 17:07:36;;;;;;;;;;;;;;;11.22;49.98;96645.28;4190656;28;5646;-66
2022/03/13 17:09:38;;;;;;;;;;;;;;;11.42;48.86;96650.59;4194588;28;5686;-66
2022/03/13 17:11:40;;;;;;;;;;;;;;;11.46;48.63;96656.31;4198559;28;5651;-65
2022/03/13 17:13:42;;;;;;;;;;;;;;;11.45;49.17;96663.44;4198206;28;5687;-66